sensor_id;sensor_type;location;lat;lon;timestamp;P1;durP1;ratioP1;P2;durP2;ratioP2
31298;SDS011;17927;52.350;13.402;2023-02-08T00:01:41;65.57;;;33.00;;
31298;SDS011;17927;52.350;13.402;2023-02-08T00:04:06;61.85;;;32.20;;
31298;SDS011;17927;52.350;13.402;2023-02-08T00:06:32;59.85;;;31.10;;
31298;SDS011;17927;52.350;13.402;2023-02-08T00:08:57;60.55;;;30.52;;
31298;SDS011;17927;52.350;13.402;2023-02-08T00:11:22;66.72;;;32.78;;
31298;SDS011;17927;52.350;13.402;2023-02-08T00:13:47;63.22;;;31.10;;
31298;SDS011;17927;52.350;13.402;2023-02-08T00:16:13;66.10;;;30.88;;
31298;SDS011;17927;52.350;13.402;2023-02-08T00:18:39;66.15;;;31.63;;
31298;SDS011;17927;52.350;13.402;2023-02-08T00:21:06;64.93;;;31.85;;
31298;SDS011;17927;52.350;13.402;2023-02-08T00:23:32;63.83;;;30.90;;
31298;SDS011;17927;52.350;13.402;2023-02-08T00:25:57;60.28;;;31.00;;
31298;SDS011;17927;52.350;13.402;2023-02-08T00:28:23;66.28;;;33.10;;
31298;SDS011;17927;52.350;13.402;2023-02-08T00:30:48;60.38;;;30.42;;
31298;SDS011;17927;52.350;13.402;2023-02-08T00:33:13;66.28;;;32.50;;
31298;SDS011;17927;52.350;13.402;2023-02-08T00:35:39;62.78;;;33.25;;
31298;SDS011;17927;52.350;13.402;2023-02-08T00:38:06;60.00;;;32.92;;
31298;SDS011;17927;52.350;13.402;2023-02-08T00:40:31;66.25;;;32.85;;
31298;SDS011;17927;52.350;13.402;2023-02-08T00:42:56;65.88;;;32.25;;
31298;SDS011;17927;52.350;13.402;2023-02-08T00:45:21;58.35;;;29.52;;
31298;SDS011;17927;52.350;13.402;2023-02-08T00:47:47;60.30;;;31.58;;
31298;SDS011;17927;52.350;13.402;2023-02-08T00:50:13;56.55;;;29.17;;
31298;SDS011;17927;52.350;13.402;2023-02-08T00:52:38;64.00;;;30.77;;
31298;SDS011;17927;52.350;13.402;2023-02-08T00:55:04;63.88;;;30.70;;
31298;SDS011;17927;52.350;13.402;2023-02-08T00:57:33;60.78;;;29.08;;
31298;SDS011;17927;52.350;13.402;2023-02-08T00:59:58;67.82;;;30.83;;
31298;SDS011;17927;52.350;13.402;2023-02-08T01:02:24;57.90;;;29.30;;
31298;SDS011;17927;52.350;13.402;2023-02-08T01:04:49;59.70;;;30.27;;
31298;SDS011;17927;52.350;13.402;2023-02-08T01:07:14;57.13;;;29.42;;
31298;SDS011;17927;52.350;13.402;2023-02-08T01:09:40;59.60;;;29.65;;
31298;SDS011;17927;52.350;13.402;2023-02-08T01:12:05;59.22;;;30.17;;
31298;SDS011;17927;52.350;13.402;2023-02-08T01:14:30;61.83;;;30.02;;
31298;SDS011;17927;52.350;13.402;2023-02-08T01:16:55;68.20;;;33.53;;
31298;SDS011;17927;52.350;13.402;2023-02-08T01:19:21;61.90;;;30.65;;
31298;SDS011;17927;52.350;13.402;2023-02-08T01:21:46;61.47;;;30.55;;
31298;SDS011;17927;52.350;13.402;2023-02-08T01:24:13;58.25;;;28.10;;
31298;SDS011;17927;52.350;13.402;2023-02-08T01:26:39;63.22;;;28.77;;
31298;SDS011;17927;52.350;13.402;2023-02-08T01:29:04;58.92;;;29.13;;
31298;SDS011;17927;52.350;13.402;2023-02-08T01:31:31;68.13;;;33.58;;
31298;SDS011;17927;52.350;13.402;2023-02-08T01:34:01;86.20;;;42.70;;
31298;SDS011;17927;52.350;13.402;2023-02-08T01:36:27;88.03;;;43.72;;
31298;SDS011;17927;52.350;13.402;2023-02-08T01:38:53;82.65;;;40.33;;
31298;SDS011;17927;52.350;13.402;2023-02-08T01:41:20;70.47;;;35.55;;
31298;SDS011;17927;52.350;13.402;2023-02-08T01:46:33;71.07;;;37.63;;
31298;SDS011;17927;52.350;13.402;2023-02-08T01:49:02;68.25;;;35.60;;
31298;SDS011;17927;52.350;13.402;2023-02-08T01:51:34;67.88;;;34.95;;
31298;SDS011;17927;52.350;13.402;2023-02-08T01:54:03;68.28;;;33.00;;
31298;SDS011;17927;52.350;13.402;2023-02-08T01:56:38;61.25;;;29.63;;
31298;SDS011;17927;52.350;13.402;2023-02-08T01:59:08;52.63;;;28.02;;
31298;SDS011;17927;52.350;13.402;2023-02-08T02:01:37;54.35;;;26.42;;
31298;SDS011;17927;52.350;13.402;2023-02-08T02:04:05;51.25;;;25.35;;
31298;SDS011;17927;52.350;13.402;2023-02-08T02:06:33;46.10;;;24.92;;
31298;SDS011;17927;52.350;13.402;2023-02-08T02:09:06;37.13;;;19.98;;
31298;SDS011;17927;52.350;13.402;2023-02-08T02:11:38;53.25;;;25.13;;
31298;SDS011;17927;52.350;13.402;2023-02-08T02:14:04;56.08;;;26.75;;
31298;SDS011;17927;52.350;13.402;2023-02-08T02:16:29;51.05;;;26.17;;
31298;SDS011;17927;52.350;13.402;2023-02-08T02:18:54;49.55;;;26.25;;
31298;SDS011;17927;52.350;13.402;2023-02-08T02:21:37;53.70;;;25.60;;
31298;SDS011;17927;52.350;13.402;2023-02-08T02:24:20;43.45;;;23.92;;
31298;SDS011;17927;52.350;13.402;2023-02-08T02:33:07;48.63;;;24.65;;
31298;SDS011;17927;52.350;13.402;2023-02-08T02:38:38;46.30;;;24.17;;
31298;SDS011;17927;52.350;13.402;2023-02-08T02:41:18;43.03;;;22.80;;
31298;SDS011;17927;52.350;13.402;2023-02-08T02:44:19;40.58;;;21.63;;
31298;SDS011;17927;52.350;13.402;2023-02-08T02:46:51;43.80;;;22.98;;
31298;SDS011;17927;52.350;13.402;2023-02-08T02:52:04;41.35;;;21.08;;
31298;SDS011;17927;52.350;13.402;2023-02-08T02:54:39;45.47;;;23.88;;
31298;SDS011;17927;52.350;13.402;2023-02-08T02:57:10;43.83;;;20.50;;
31298;SDS011;17927;52.350;13.402;2023-02-08T02:59:40;42.05;;;22.25;;
31298;SDS011;17927;52.350;13.402;2023-02-08T03:02:06;43.10;;;23.20;;
31298;SDS011;17927;52.350;13.402;2023-02-08T03:07:01;42.80;;;22.17;;
31298;SDS011;17927;52.350;13.402;2023-02-08T03:18:20;39.70;;;19.80;;
31298;SDS011;17927;52.350;13.402;2023-02-08T03:21:00;40.63;;;20.90;;
31298;SDS011;17927;52.350;13.402;2023-02-08T03:23:42;39.40;;;20.58;;
31298;SDS011;17927;52.350;13.402;2023-02-08T03:26:21;43.65;;;21.30;;
31298;SDS011;17927;52.350;13.402;2023-02-08T03:31:31;45.53;;;21.77;;
31298;SDS011;17927;52.350;13.402;2023-02-08T03:34:05;47.03;;;22.50;;
31298;SDS011;17927;52.350;13.402;2023-02-08T03:36:46;41.58;;;21.30;;
31298;SDS011;17927;52.350;13.402;2023-02-08T03:39:19;40.53;;;20.73;;
31298;SDS011;17927;52.350;13.402;2023-02-08T03:41:48;43.90;;;22.20;;
31298;SDS011;17927;52.350;13.402;2023-02-08T03:44:18;36.13;;;19.75;;
31298;SDS011;17927;52.350;13.402;2023-02-08T03:46:49;39.97;;;21.20;;
31298;SDS011;17927;52.350;13.402;2023-02-08T03:51:46;38.95;;;18.80;;
31298;SDS011;17927;52.350;13.402;2023-02-08T03:54:14;40.22;;;21.05;;
31298;SDS011;17927;52.350;13.402;2023-02-08T03:56:45;40.30;;;20.83;;
31298;SDS011;17927;52.350;13.402;2023-02-08T03:59:20;38.45;;;21.35;;
31298;SDS011;17927;52.350;13.402;2023-02-08T04:01:56;39.67;;;21.52;;
31298;SDS011;17927;52.350;13.402;2023-02-08T04:04:24;40.60;;;20.40;;
31298;SDS011;17927;52.350;13.402;2023-02-08T04:06:52;43.05;;;22.05;;
31298;SDS011;17927;52.350;13.402;2023-02-08T04:09:18;44.92;;;22.15;;
31298;SDS011;17927;52.350;13.402;2023-02-08T04:11:43;46.70;;;21.90;;
31298;SDS011;17927;52.350;13.402;2023-02-08T04:14:08;42.95;;;21.27;;
31298;SDS011;17927;52.350;13.402;2023-02-08T04:16:34;39.90;;;20.52;;
31298;SDS011;17927;52.350;13.402;2023-02-08T04:18:59;38.05;;;19.95;;
31298;SDS011;17927;52.350;13.402;2023-02-08T04:21:24;35.50;;;18.40;;
31298;SDS011;17927;52.350;13.402;2023-02-08T04:23:49;41.42;;;19.50;;
31298;SDS011;17927;52.350;13.402;2023-02-08T04:26:15;36.88;;;19.00;;
31298;SDS011;17927;52.350;13.402;2023-02-08T04:28:40;33.30;;;19.33;;
31298;SDS011;17927;52.350;13.402;2023-02-08T04:31:05;36.05;;;18.70;;
31298;SDS011;17927;52.350;13.402;2023-02-08T04:33:30;34.33;;;18.75;;
31298;SDS011;17927;52.350;13.402;2023-02-08T04:35:56;44.92;;;19.15;;
31298;SDS011;17927;52.350;13.402;2023-02-08T04:38:21;37.13;;;18.13;;
31298;SDS011;17927;52.350;13.402;2023-02-08T04:40:46;33.30;;;17.80;;
31298;SDS011;17927;52.350;13.402;2023-02-08T04:43:11;34.47;;;18.25;;
31298;SDS011;17927;52.350;13.402;2023-02-08T04:45:37;34.40;;;18.85;;
31298;SDS011;17927;52.350;13.402;2023-02-08T04:48:02;32.25;;;17.35;;
31298;SDS011;17927;52.350;13.402;2023-02-08T04:50:28;29.05;;;16.35;;
31298;SDS011;17927;52.350;13.402;2023-02-08T04:52:54;29.95;;;17.65;;
31298;SDS011;17927;52.350;13.402;2023-02-08T04:55:19;36.10;;;17.10;;
31298;SDS011;17927;52.350;13.402;2023-02-08T04:57:44;32.78;;;17.30;;
31298;SDS011;17927;52.350;13.402;2023-02-08T05:00:10;32.80;;;16.70;;
31298;SDS011;17927;52.350;13.402;2023-02-08T05:02:35;33.13;;;17.02;;
31298;SDS011;17927;52.350;13.402;2023-02-08T05:05:01;29.77;;;17.00;;
31298;SDS011;17927;52.350;13.402;2023-02-08T05:07:26;32.35;;;17.20;;
31298;SDS011;17927;52.350;13.402;2023-02-08T05:09:52;33.70;;;16.48;;
31298;SDS011;17927;52.350;13.402;2023-02-08T05:12:17;26.38;;;15.52;;
31298;SDS011;17927;52.350;13.402;2023-02-08T05:14:42;35.65;;;17.55;;
31298;SDS011;17927;52.350;13.402;2023-02-08T05:17:07;34.58;;;17.58;;
31298;SDS011;17927;52.350;13.402;2023-02-08T05:19:33;31.45;;;16.95;;
31298;SDS011;17927;52.350;13.402;2023-02-08T05:21:58;36.50;;;18.00;;
31298;SDS011;17927;52.350;13.402;2023-02-08T05:24:23;34.33;;;16.42;;
31298;SDS011;17927;52.350;13.402;2023-02-08T05:26:49;36.47;;;17.83;;
31298;SDS011;17927;52.350;13.402;2023-02-08T05:29:14;34.28;;;17.25;;
31298;SDS011;17927;52.350;13.402;2023-02-08T05:31:39;31.25;;;16.65;;
31298;SDS011;17927;52.350;13.402;2023-02-08T05:34:04;35.35;;;17.95;;
31298;SDS011;17927;52.350;13.402;2023-02-08T05:36:30;33.00;;;17.17;;
31298;SDS011;17927;52.350;13.402;2023-02-08T05:38:55;32.00;;;16.80;;
31298;SDS011;17927;52.350;13.402;2023-02-08T05:41:20;37.88;;;18.05;;
31298;SDS011;17927;52.350;13.402;2023-02-08T05:43:45;37.92;;;18.92;;
31298;SDS011;17927;52.350;13.402;2023-02-08T05:46:11;33.22;;;17.35;;
31298;SDS011;17927;52.350;13.402;2023-02-08T05:48:36;37.08;;;19.00;;
31298;SDS011;17927;52.350;13.402;2023-02-08T05:51:02;36.60;;;18.73;;
31298;SDS011;17927;52.350;13.402;2023-02-08T05:53:27;34.80;;;18.02;;
31298;SDS011;17927;52.350;13.402;2023-02-08T05:55:53;36.53;;;18.30;;
31298;SDS011;17927;52.350;13.402;2023-02-08T05:58:18;35.22;;;18.20;;
31298;SDS011;17927;52.350;13.402;2023-02-08T06:00:44;39.55;;;19.30;;
31298;SDS011;17927;52.350;13.402;2023-02-08T06:03:09;38.58;;;17.70;;
31298;SDS011;17927;52.350;13.402;2023-02-08T06:05:36;39.15;;;18.70;;
31298;SDS011;17927;52.350;13.402;2023-02-08T06:08:02;34.33;;;18.45;;
31298;SDS011;17927;52.350;13.402;2023-02-08T06:10:28;40.33;;;19.10;;
31298;SDS011;17927;52.350;13.402;2023-02-08T06:12:53;36.90;;;17.42;;
31298;SDS011;17927;52.350;13.402;2023-02-08T06:15:18;30.40;;;18.05;;
31298;SDS011;17927;52.350;13.402;2023-02-08T06:17:43;42.38;;;18.90;;
31298;SDS011;17927;52.350;13.402;2023-02-08T06:20:09;45.95;;;21.00;;
31298;SDS011;17927;52.350;13.402;2023-02-08T06:22:34;41.90;;;19.92;;
31298;SDS011;17927;52.350;13.402;2023-02-08T06:24:59;39.63;;;19.50;;
31298;SDS011;17927;52.350;13.402;2023-02-08T06:27:25;37.45;;;20.10;;
31298;SDS011;17927;52.350;13.402;2023-02-08T06:29:50;35.85;;;19.75;;
31298;SDS011;17927;52.350;13.402;2023-02-08T06:32:15;43.35;;;19.65;;
31298;SDS011;17927;52.350;13.402;2023-02-08T06:34:40;36.95;;;19.83;;
31298;SDS011;17927;52.350;13.402;2023-02-08T06:37:06;41.67;;;20.00;;
31298;SDS011;17927;52.350;13.402;2023-02-08T06:39:31;41.70;;;19.85;;
31298;SDS011;17927;52.350;13.402;2023-02-08T06:41:56;45.97;;;19.77;;
31298;SDS011;17927;52.350;13.402;2023-02-08T06:44:22;41.05;;;19.88;;
31298;SDS011;17927;52.350;13.402;2023-02-08T06:46:48;39.88;;;18.75;;
31298;SDS011;17927;52.350;13.402;2023-02-08T06:49:13;46.28;;;20.60;;
31298;SDS011;17927;52.350;13.402;2023-02-08T06:51:38;43.53;;;20.55;;
31298;SDS011;17927;52.350;13.402;2023-02-08T06:54:04;39.10;;;20.05;;
31298;SDS011;17927;52.350;13.402;2023-02-08T06:56:29;37.78;;;19.15;;
31298;SDS011;17927;52.350;13.402;2023-02-08T06:58:55;43.40;;;20.60;;
31298;SDS011;17927;52.350;13.402;2023-02-08T07:01:20;37.42;;;19.00;;
31298;SDS011;17927;52.350;13.402;2023-02-08T07:03:45;44.92;;;21.20;;
31298;SDS011;17927;52.350;13.402;2023-02-08T07:06:11;47.22;;;22.35;;
31298;SDS011;17927;52.350;13.402;2023-02-08T07:08:38;44.60;;;21.80;;
31298;SDS011;17927;52.350;13.402;2023-02-08T07:11:07;41.83;;;21.70;;
31298;SDS011;17927;52.350;13.402;2023-02-08T07:13:40;45.90;;;22.33;;
31298;SDS011;17927;52.350;13.402;2023-02-08T07:16:06;43.80;;;22.08;;
31298;SDS011;17927;52.350;13.402;2023-02-08T07:18:32;46.67;;;22.00;;
31298;SDS011;17927;52.350;13.402;2023-02-08T07:20:58;47.13;;;22.25;;
31298;SDS011;17927;52.350;13.402;2023-02-08T07:23:24;41.90;;;22.35;;
31298;SDS011;17927;52.350;13.402;2023-02-08T07:25:59;50.92;;;22.70;;
31298;SDS011;17927;52.350;13.402;2023-02-08T07:28:26;45.10;;;21.48;;
31298;SDS011;17927;52.350;13.402;2023-02-08T07:30:52;41.42;;;22.02;;
31298;SDS011;17927;52.350;13.402;2023-02-08T07:33:17;46.55;;;22.83;;
31298;SDS011;17927;52.350;13.402;2023-02-08T07:35:43;45.55;;;22.52;;
31298;SDS011;17927;52.350;13.402;2023-02-08T07:38:08;42.47;;;22.40;;
31298;SDS011;17927;52.350;13.402;2023-02-08T07:40:34;45.08;;;23.00;;
31298;SDS011;17927;52.350;13.402;2023-02-08T07:42:59;38.13;;;20.33;;
31298;SDS011;17927;52.350;13.402;2023-02-08T07:45:24;45.65;;;22.42;;
31298;SDS011;17927;52.350;13.402;2023-02-08T07:47:50;45.53;;;22.65;;
31298;SDS011;17927;52.350;13.402;2023-02-08T07:50:15;53.05;;;22.60;;
31298;SDS011;17927;52.350;13.402;2023-02-08T07:52:40;55.05;;;22.75;;
31298;SDS011;17927;52.350;13.402;2023-02-08T07:55:08;48.60;;;22.73;;
31298;SDS011;17927;52.350;13.402;2023-02-08T07:57:33;50.13;;;22.65;;
31298;SDS011;17927;52.350;13.402;2023-02-08T07:59:59;52.38;;;23.48;;
31298;SDS011;17927;52.350;13.402;2023-02-08T08:02:24;52.60;;;22.92;;
31298;SDS011;17927;52.350;13.402;2023-02-08T08:04:49;43.30;;;23.23;;
31298;SDS011;17927;52.350;13.402;2023-02-08T08:07:17;48.22;;;24.27;;
31298;SDS011;17927;52.350;13.402;2023-02-08T08:09:43;46.47;;;23.77;;
31298;SDS011;17927;52.350;13.402;2023-02-08T08:12:08;45.38;;;22.55;;
31298;SDS011;17927;52.350;13.402;2023-02-08T08:14:33;43.40;;;23.40;;
31298;SDS011;17927;52.350;13.402;2023-02-08T08:16:59;47.55;;;23.65;;
31298;SDS011;17927;52.350;13.402;2023-02-08T08:19:24;46.70;;;24.52;;
31298;SDS011;17927;52.350;13.402;2023-02-08T08:21:49;42.53;;;22.73;;
31298;SDS011;17927;52.350;13.402;2023-02-08T08:24:15;49.05;;;25.00;;
31298;SDS011;17927;52.350;13.402;2023-02-08T08:26:40;44.30;;;22.90;;
31298;SDS011;17927;52.350;13.402;2023-02-08T08:29:05;47.42;;;24.58;;
31298;SDS011;17927;52.350;13.402;2023-02-08T08:31:31;52.03;;;24.92;;
31298;SDS011;17927;52.350;13.402;2023-02-08T08:33:56;49.05;;;24.02;;
31298;SDS011;17927;52.350;13.402;2023-02-08T08:36:21;49.17;;;25.02;;
31298;SDS011;17927;52.350;13.402;2023-02-08T08:38:46;51.45;;;25.48;;
31298;SDS011;17927;52.350;13.402;2023-02-08T08:41:15;48.20;;;23.85;;
31298;SDS011;17927;52.350;13.402;2023-02-08T08:43:41;47.60;;;24.70;;
31298;SDS011;17927;52.350;13.402;2023-02-08T08:46:07;45.15;;;24.73;;
31298;SDS011;17927;52.350;13.402;2023-02-08T08:48:34;47.20;;;23.85;;
31298;SDS011;17927;52.350;13.402;2023-02-08T08:50:59;50.72;;;25.52;;
31298;SDS011;17927;52.350;13.402;2023-02-08T08:53:25;53.95;;;24.45;;
31298;SDS011;17927;52.350;13.402;2023-02-08T08:55:51;49.67;;;25.60;;
31298;SDS011;17927;52.350;13.402;2023-02-08T08:58:16;47.92;;;24.65;;
31298;SDS011;17927;52.350;13.402;2023-02-08T09:00:41;53.05;;;24.60;;
31298;SDS011;17927;52.350;13.402;2023-02-08T09:03:06;48.35;;;24.67;;
31298;SDS011;17927;52.350;13.402;2023-02-08T09:05:32;46.97;;;24.17;;
31298;SDS011;17927;52.350;13.402;2023-02-08T09:07:57;47.10;;;24.65;;
31298;SDS011;17927;52.350;13.402;2023-02-08T09:10:22;47.15;;;26.42;;
31298;SDS011;17927;52.350;13.402;2023-02-08T09:12:47;54.42;;;25.02;;
31298;SDS011;17927;52.350;13.402;2023-02-08T09:15:13;50.22;;;23.45;;
31298;SDS011;17927;52.350;13.402;2023-02-08T09:17:38;49.13;;;25.13;;
31298;SDS011;17927;52.350;13.402;2023-02-08T09:20:03;47.83;;;25.23;;
31298;SDS011;17927;52.350;13.402;2023-02-08T09:22:29;49.63;;;25.92;;
31298;SDS011;17927;52.350;13.402;2023-02-08T09:24:54;52.47;;;27.30;;
31298;SDS011;17927;52.350;13.402;2023-02-08T09:27:20;59.38;;;27.38;;
31298;SDS011;17927;52.350;13.402;2023-02-08T09:29:45;51.95;;;27.02;;
31298;SDS011;17927;52.350;13.402;2023-02-08T09:32:10;52.08;;;25.92;;
31298;SDS011;17927;52.350;13.402;2023-02-08T09:34:35;55.20;;;27.38;;
31298;SDS011;17927;52.350;13.402;2023-02-08T09:37:01;55.15;;;27.77;;
31298;SDS011;17927;52.350;13.402;2023-02-08T09:39:26;53.03;;;26.55;;
31298;SDS011;17927;52.350;13.402;2023-02-08T09:42:04;52.30;;;26.92;;
31298;SDS011;17927;52.350;13.402;2023-02-08T09:44:52;57.03;;;27.23;;
31298;SDS011;17927;52.350;13.402;2023-02-08T09:47:41;54.17;;;27.80;;
31298;SDS011;17927;52.350;13.402;2023-02-08T09:50:24;56.95;;;27.30;;
31298;SDS011;17927;52.350;13.402;2023-02-08T09:53:07;55.58;;;26.17;;
31298;SDS011;17927;52.350;13.402;2023-02-08T09:56:15;48.00;;;26.83;;
31298;SDS011;17927;52.350;13.402;2023-02-08T09:58:45;57.20;;;27.27;;
31298;SDS011;17927;52.350;13.402;2023-02-08T10:01:18;51.17;;;27.45;;
31298;SDS011;17927;52.350;13.402;2023-02-08T10:03:45;54.80;;;27.83;;
31298;SDS011;17927;52.350;13.402;2023-02-08T10:06:15;52.28;;;26.27;;
31298;SDS011;17927;52.350;13.402;2023-02-08T10:08:43;55.15;;;27.17;;
31298;SDS011;17927;52.350;13.402;2023-02-08T10:11:17;55.72;;;27.30;;
31298;SDS011;17927;52.350;13.402;2023-02-08T10:14:13;47.47;;;26.33;;
31298;SDS011;17927;52.350;13.402;2023-02-08T10:17:08;54.47;;;26.85;;
31298;SDS011;17927;52.350;13.402;2023-02-08T10:19:59;56.28;;;28.75;;
31298;SDS011;17927;52.350;13.402;2023-02-08T10:28:10;56.72;;;28.05;;
31298;SDS011;17927;52.350;13.402;2023-02-08T10:30:51;49.88;;;24.85;;
31298;SDS011;17927;52.350;13.402;2023-02-08T10:33:30;50.55;;;25.00;;
31298;SDS011;17927;52.350;13.402;2023-02-08T10:36:01;55.35;;;28.27;;
31298;SDS011;17927;52.350;13.402;2023-02-08T10:38:28;47.85;;;26.05;;
31298;SDS011;17927;52.350;13.402;2023-02-08T10:41:00;50.95;;;25.88;;
31298;SDS011;17927;52.350;13.402;2023-02-08T10:49:12;45.63;;;26.48;;
31298;SDS011;17927;52.350;13.402;2023-02-08T10:51:44;50.33;;;26.50;;
31298;SDS011;17927;52.350;13.402;2023-02-08T10:54:14;52.88;;;27.25;;
31298;SDS011;17927;52.350;13.402;2023-02-08T10:59:24;50.75;;;27.10;;
31298;SDS011;17927;52.350;13.402;2023-02-08T11:01:54;54.35;;;26.27;;
31298;SDS011;17927;52.350;13.402;2023-02-08T11:04:20;51.67;;;26.10;;
31298;SDS011;17927;52.350;13.402;2023-02-08T11:06:46;53.42;;;27.60;;
31298;SDS011;17927;52.350;13.402;2023-02-08T11:09:20;51.42;;;26.10;;
31298;SDS011;17927;52.350;13.402;2023-02-08T11:11:50;52.03;;;27.10;;
31298;SDS011;17927;52.350;13.402;2023-02-08T11:14:17;49.13;;;25.73;;
31298;SDS011;17927;52.350;13.402;2023-02-08T11:16:53;49.40;;;26.50;;
31298;SDS011;17927;52.350;13.402;2023-02-08T11:19:28;49.72;;;26.58;;
31298;SDS011;17927;52.350;13.402;2023-02-08T11:21:58;54.85;;;28.20;;
31298;SDS011;17927;52.350;13.402;2023-02-08T11:24:29;50.35;;;26.65;;
31298;SDS011;17927;52.350;13.402;2023-02-08T11:27:03;47.38;;;25.25;;
31298;SDS011;17927;52.350;13.402;2023-02-08T11:29:40;53.88;;;27.90;;
31298;SDS011;17927;52.350;13.402;2023-02-08T11:32:16;49.95;;;26.20;;
31298;SDS011;17927;52.350;13.402;2023-02-08T11:34:42;45.28;;;24.75;;
31298;SDS011;17927;52.350;13.402;2023-02-08T11:37:14;46.65;;;25.15;;
31298;SDS011;17927;52.350;13.402;2023-02-08T11:39:48;51.90;;;26.98;;
31298;SDS011;17927;52.350;13.402;2023-02-08T11:42:19;47.45;;;24.48;;
31298;SDS011;17927;52.350;13.402;2023-02-08T11:44:48;44.03;;;23.98;;
31298;SDS011;17927;52.350;13.402;2023-02-08T11:47:15;54.55;;;25.33;;
31298;SDS011;17927;52.350;13.402;2023-02-08T11:49:42;49.42;;;26.70;;
31298;SDS011;17927;52.350;13.402;2023-02-08T11:52:19;43.92;;;25.13;;
31298;SDS011;17927;52.350;13.402;2023-02-08T11:54:45;49.28;;;26.42;;
31298;SDS011;17927;52.350;13.402;2023-02-08T11:57:11;49.08;;;25.05;;
31298;SDS011;17927;52.350;13.402;2023-02-08T11:59:37;45.67;;;23.40;;
31298;SDS011;17927;52.350;13.402;2023-02-08T12:05:00;46.45;;;24.67;;
31298;SDS011;17927;52.350;13.402;2023-02-08T12:07:44;44.75;;;23.85;;
31298;SDS011;17927;52.350;13.402;2023-02-08T12:10:23;39.45;;;22.70;;
31298;SDS011;17927;52.350;13.402;2023-02-08T12:13:17;46.20;;;24.65;;
31298;SDS011;17927;52.350;13.402;2023-02-08T12:18:32;49.70;;;23.25;;
31298;SDS011;17927;52.350;13.402;2023-02-08T12:21:21;43.20;;;22.70;;
31298;SDS011;17927;52.350;13.402;2023-02-08T12:24:05;43.97;;;22.55;;
31298;SDS011;17927;52.350;13.402;2023-02-08T12:26:58;40.80;;;23.08;;
31298;SDS011;17927;52.350;13.402;2023-02-08T12:32:35;41.63;;;23.13;;
31298;SDS011;17927;52.350;13.402;2023-02-08T12:35:40;43.03;;;23.92;;
31298;SDS011;17927;52.350;13.402;2023-02-08T12:38:15;39.13;;;22.40;;
31298;SDS011;17927;52.350;13.402;2023-02-08T12:41:20;41.83;;;22.92;;
31298;SDS011;17927;52.350;13.402;2023-02-08T12:52:14;36.90;;;21.35;;
31298;SDS011;17927;52.350;13.402;2023-02-08T12:57:51;36.83;;;21.88;;
31298;SDS011;17927;52.350;13.402;2023-02-08T13:00:24;39.20;;;23.38;;
31298;SDS011;17927;52.350;13.402;2023-02-08T13:02:57;35.28;;;21.63;;
31298;SDS011;17927;52.350;13.402;2023-02-08T13:05:32;34.85;;;22.08;;
31298;SDS011;17927;52.350;13.402;2023-02-08T13:08:02;36.97;;;21.70;;
31298;SDS011;17927;52.350;13.402;2023-02-08T13:10:38;36.85;;;21.65;;
31298;SDS011;17927;52.350;13.402;2023-02-08T13:13:09;38.65;;;22.80;;
31298;SDS011;17927;52.350;13.402;2023-02-08T13:15:42;35.80;;;22.00;;
31298;SDS011;17927;52.350;13.402;2023-02-08T13:18:12;35.58;;;21.02;;
31298;SDS011;17927;52.350;13.402;2023-02-08T13:20:40;36.28;;;21.63;;
31298;SDS011;17927;52.350;13.402;2023-02-08T13:23:27;33.95;;;21.35;;
31298;SDS011;17927;52.350;13.402;2023-02-08T13:25:59;33.92;;;20.85;;
31298;SDS011;17927;52.350;13.402;2023-02-08T13:28:28;31.67;;;20.45;;
31298;SDS011;17927;52.350;13.402;2023-02-08T13:30:54;38.05;;;22.02;;
31298;SDS011;17927;52.350;13.402;2023-02-08T13:33:27;36.95;;;22.10;;
31298;SDS011;17927;52.350;13.402;2023-02-08T13:35:56;34.65;;;21.35;;
31298;SDS011;17927;52.350;13.402;2023-02-08T13:38:32;36.42;;;21.20;;
31298;SDS011;17927;52.350;13.402;2023-02-08T13:41:03;34.33;;;19.98;;
31298;SDS011;17927;52.350;13.402;2023-02-08T13:43:33;32.53;;;21.13;;
31298;SDS011;17927;52.350;13.402;2023-02-08T13:46:06;37.03;;;22.20;;
31298;SDS011;17927;52.350;13.402;2023-02-08T13:48:49;37.38;;;21.90;;
31298;SDS011;17927;52.350;13.402;2023-02-08T13:59:01;34.35;;;20.20;;
31298;SDS011;17927;52.350;13.402;2023-02-08T14:01:29;33.35;;;20.45;;
31298;SDS011;17927;52.350;13.402;2023-02-08T14:06:30;34.40;;;21.83;;
31298;SDS011;17927;52.350;13.402;2023-02-08T14:12:00;35.72;;;20.73;;
31298;SDS011;17927;52.350;13.402;2023-02-08T14:14:30;32.17;;;19.98;;
31298;SDS011;17927;52.350;13.402;2023-02-08T14:19:43;32.80;;;19.40;;
31298;SDS011;17927;52.350;13.402;2023-02-08T14:24:59;33.90;;;19.83;;
31298;SDS011;17927;52.350;13.402;2023-02-08T14:27:37;31.88;;;20.23;;
31298;SDS011;17927;52.350;13.402;2023-02-08T14:32:46;30.50;;;20.42;;
31298;SDS011;17927;52.350;13.402;2023-02-08T14:37:42;35.05;;;21.25;;
31298;SDS011;17927;52.350;13.402;2023-02-08T14:42:56;34.42;;;20.60;;
31298;SDS011;17927;52.350;13.402;2023-02-08T14:45:30;35.97;;;21.48;;
31298;SDS011;17927;52.350;13.402;2023-02-08T14:48:43;34.30;;;20.17;;
31298;SDS011;17927;52.350;13.402;2023-02-08T14:51:36;36.50;;;20.75;;
31298;SDS011;17927;52.350;13.402;2023-02-08T14:56:14;34.15;;;20.98;;
31298;SDS011;17927;52.350;13.402;2023-02-08T14:58:42;34.70;;;21.13;;
31298;SDS011;17927;52.350;13.402;2023-02-08T15:01:16;33.70;;;19.77;;
31298;SDS011;17927;52.350;13.402;2023-02-08T15:03:46;29.17;;;18.13;;
31298;SDS011;17927;52.350;13.402;2023-02-08T15:12:04;31.13;;;18.70;;
31298;SDS011;17927;52.350;13.402;2023-02-08T15:14:34;32.47;;;19.42;;
31298;SDS011;17927;52.350;13.402;2023-02-08T15:17:01;34.45;;;19.20;;
31298;SDS011;17927;52.350;13.402;2023-02-08T15:19:28;33.95;;;20.65;;
31298;SDS011;17927;52.350;13.402;2023-02-08T15:24:48;30.73;;;18.67;;
31298;SDS011;17927;52.350;13.402;2023-02-08T15:27:18;36.70;;;20.50;;
31298;SDS011;17927;52.350;13.402;2023-02-08T15:29:51;35.65;;;19.50;;
31298;SDS011;17927;52.350;13.402;2023-02-08T15:32:17;35.60;;;21.85;;
31298;SDS011;17927;52.350;13.402;2023-02-08T15:34:47;38.22;;;20.25;;
31298;SDS011;17927;52.350;13.402;2023-02-08T15:37:17;35.88;;;19.30;;
31298;SDS011;17927;52.350;13.402;2023-02-08T15:39:43;38.15;;;20.00;;
31298;SDS011;17927;52.350;13.402;2023-02-08T15:42:17;31.35;;;19.40;;
31298;SDS011;17927;52.350;13.402;2023-02-08T15:44:52;35.40;;;19.80;;
31298;SDS011;17927;52.350;13.402;2023-02-08T15:47:25;37.67;;;21.23;;
31298;SDS011;17927;52.350;13.402;2023-02-08T15:49:54;38.25;;;20.45;;
31298;SDS011;17927;52.350;13.402;2023-02-08T15:52:21;38.33;;;21.00;;
31298;SDS011;17927;52.350;13.402;2023-02-08T15:54:49;37.75;;;19.88;;
31298;SDS011;17927;52.350;13.402;2023-02-08T15:57:35;41.47;;;22.10;;
31298;SDS011;17927;52.350;13.402;2023-02-08T16:00:05;40.35;;;21.30;;
31298;SDS011;17927;52.350;13.402;2023-02-08T16:02:38;42.42;;;23.05;;
31298;SDS011;17927;52.350;13.402;2023-02-08T16:05:09;47.65;;;23.50;;